Time;durP1;ratioP1;P1;durP2;ratioP2;P2;SDS_P1;SDS_P2;PMS_P1;PMS_P2;Temp;Humidity;BMP_temperature;BMP_pressure;BME280_temperature;BME280_humidity;BME280_pressure;Samples;Min_cycle;Max_cycle;Signal;HPM_P1;HPM_P2
2022/03/24 00:00:23;;;;;;;7.25;3.95;;;5.00;99.90;;;;;;5069046;28;20045;-62
2022/03/24 00:02:50;;;;;;;8.50;3.95;;;4.90;99.90;;;;;;5070545;28;20048;-62
2022/03/24 00:05:17;;;;;;;9.57;3.95;;;4.80;99.90;;;;;;5069340;28;20043;-62
2022/03/24 00:07:44;;;;;;;11.98;4.07;;;4.70;99.90;;;;;;5069636;28;20116;-62
2022/03/24 00:10:12;;;;;;;8.15;3.40;;;4.60;99.90;;;;;;5069502;28;20051;-62
2022/03/24 00:12:39;;;;;;;10.02;3.92;;;4.50;99.90;;;;;;5069574;28;20072;-62
2022/03/24 00:15:08;;;;;;;13.05;3.60;;;4.40;99.90;;;;;;5069154;28;20454;-62
2022/03/24 00:17:35;;;;;;;8.25;3.70;;;4.40;99.90;;;;;;5070375;28;20048;-62
2022/03/24 00:20:03;;;;;;;9.93;3.63;;;4.40;99.90;;;;;;5070637;28;20040;-62
2022/03/24 00:22:30;;;;;;;6.70;3.38;;;4.30;99.90;;;;;;5070639;28;20673;-62
2022/03/24 00:24:57;;;;;;;5.40;2.97;;;4.30;99.90;;;;;;5066383;28;20146;-62
2022/03/24 00:27:25;;;;;;;7.45;3.05;;;4.30;99.90;;;;;;5071068;28;20061;-64
2022/03/24 00:29:52;;;;;;;4.97;2.42;;;4.20;99.90;;;;;;5068794;28;20083;-64
2022/03/24 00:32:19;;;;;;;9.90;3.95;;;4.20;99.90;;;;;;5066167;28;20128;-63
2022/03/24 00:34:46;;;;;;;6.38;3.30;;;4.20;99.90;;;;;;5063820;28;20071;-64
2022/03/24 00:37:14;;;;;;;6.95;3.50;;;4.20;99.90;;;;;;5063593;28;20102;-63
2022/03/24 00:39:41;;;;;;;;;;;4.20;99.90;;;;;;5069352;28;20451;-63
2022/03/24 00:42:11;;;;;;;8.30;3.47;;;4.20;99.90;;;;;;5073451;28;19920;-61
2022/03/24 00:44:42;;;;;;;8.43;4.05;;;4.10;99.90;;;;;;5074601;28;20044;-61
2022/03/24 00:47:11;;;;;;;7.38;3.50;;;4.00;99.90;;;;;;5075092;28;20033;-64
2022/03/24 00:49:39;;;;;;;9.55;3.13;;;4.00;99.90;;;;;;5057072;28;20040;-64
2022/03/24 00:52:09;;;;;;;6.50;3.13;;;4.00;99.90;;;;;;5069158;28;20135;-64
2022/03/24 00:54:36;;;;;;;9.68;3.00;;;4.00;99.90;;;;;;5063800;28;20562;-64
2022/03/24 00:57:03;;;;;;;7.78;3.13;;;3.90;99.90;;;;;;5075122;28;20400;-64
2022/03/24 00:59:30;;;;;;;10.50;3.78;;;3.80;99.90;;;;;;5075052;28;20044;-64
2022/03/24 01:01:59;;;;;;;6.75;3.45;;;3.80;99.90;;;;;;5073331;28;20087;-64
2022/03/24 01:04:26;;;;;;;7.22;3.50;;;3.80;99.90;;;;;;5057500;28;20049;-64
2022/03/24 01:06:53;;;;;;;8.85;3.58;;;3.70;99.90;;;;;;5055004;28;20044;-64
2022/03/24 01:09:20;;;;;;;9.13;3.60;;;3.60;99.90;;;;;;5055611;28;20033;-63
2022/03/24 01:11:51;;;;;;;6.65;3.10;;;3.60;99.90;;;;;;5062556;28;20382;-63
2022/03/24 01:14:18;;;;;;;9.55;4.25;;;3.60;99.90;;;;;;5037321;28;20075;-63
2022/03/24 01:16:45;;;;;;;8.98;4.38;;;3.60;99.90;;;;;;5036895;28;20075;-64
2022/03/24 01:19:14;;;;;;;12.40;5.13;;;3.60;99.90;;;;;;5047131;28;20492;-62
2022/03/24 01:21:41;;;;;;;9.73;4.35;;;3.60;99.90;;;;;;5052916;28;20048;-62
2022/03/24 01:24:09;;;;;;;12.20;5.07;;;3.50;99.90;;;;;;5054572;28;20041;-62
2022/03/24 01:26:36;;;;;;;10.95;4.03;;;3.50;99.90;;;;;;5061006;28;20052;-62
2022/03/24 01:29:03;;;;;;;7.25;3.58;;;3.40;99.90;;;;;;5068513;28;20036;-62
2022/03/24 01:31:33;;;;;;;;;;;3.30;99.90;;;;;;5054432;28;20099;-62
2022/03/24 01:34:00;;;;;;;9.27;4.72;;;3.20;99.90;;;;;;5036539;28;19921;-62
2022/03/24 01:36:27;;;;;;;8.18;4.18;;;3.30;99.90;;;;;;5062506;28;20501;-62
2022/03/24 01:38:54;;;;;;;5.97;2.53;;;3.30;99.90;;;;;;5053197;28;20094;-62
2022/03/24 01:41:22;;;;;;;6.03;2.72;;;3.30;99.90;;;;;;5052553;28;20044;-62
2022/03/24 01:43:51;;;;;;;4.32;2.60;;;3.30;99.90;;;;;;5067622;28;20043;-62
2022/03/24 01:46:22;;;;;;;6.47;3.08;;;3.30;99.90;;;;;;5057507;28;20508;-62
2022/03/24 01:48:50;;;;;;;4.70;2.38;;;3.30;99.90;;;;;;5054243;28;20045;-62
2022/03/24 01:51:18;;;;;;;7.72;2.67;;;3.30;99.90;;;;;;5054162;28;20060;-62
2022/03/24 01:53:49;;;;;;;5.82;2.88;;;3.30;99.90;;;;;;5063341;22;20131;31
2022/03/24 01:56:41;;;;;;;5.32;2.92;;;3.30;99.90;;;;;;5089669;28;20492;-62
2022/03/24 01:59:10;;;;;;;7.55;3.03;;;3.20;99.90;;;;;;5075703;28;20047;-62
2022/03/24 02:01:37;;;;;;;8.13;2.90;;;3.10;99.90;;;;;;5091659;28;20562;-62
2022/03/24 02:04:05;;;;;;;9.30;3.42;;;3.20;99.90;;;;;;5071635;28;20068;-62
2022/03/24 02:06:33;;;;;;;5.40;3.42;;;3.20;99.90;;;;;;5081981;28;20499;-63
2022/03/24 02:09:02;;;;;;;7.05;3.45;;;3.20;99.90;;;;;;5055947;28;20045;-63
2022/03/24 02:11:35;;;;;;;8.30;3.35;;;3.20;99.90;;;;;;5055417;28;20412;-63
2022/03/24 02:14:04;;;;;;;6.95;3.38;;;3.10;99.90;;;;;;5062610;28;20053;-62
2022/03/24 02:16:34;;;;;;;7.25;3.28;;;3.10;99.90;;;;;;5063957;28;20492;-63
2022/03/24 02:19:23;;;;;;;6.45;3.15;;;3.10;99.90;;;;;;5072425;28;20044;-62
2022/03/24 02:21:52;;;;;;;6.65;2.88;;;3.00;99.90;;;;;;5062539;28;20048;-63
2022/03/24 02:24:25;;;;;;;7.00;3.15;;;3.00;99.90;;;;;;5085149;28;20036;-63
2022/03/24 02:26:52;;;;;;;5.55;3.25;;;3.00;99.90;;;;;;5093751;28;20044;-63
2022/03/24 02:29:25;;;;;;;5.85;3.15;;;3.00;99.90;;;;;;5092951;28;20048;-63
2022/03/24 02:31:52;;;;;;;8.82;3.28;;;3.00;99.90;;;;;;5084378;28;20119;-63
2022/03/24 02:34:37;;;;;;;6.68;3.97;;;3.00;99.90;;;;;;5093411;28;20450;-63
2022/03/24 02:37:08;;;;;;;6.50;3.17;;;3.00;99.90;;;;;;5093507;28;20044;-62
2022/03/24 02:39:38;;;;;;;5.47;3.05;;;3.00;99.90;;;;;;5084471;28;20106;-62
2022/03/24 02:42:07;;;;;;;5.53;3.05;;;2.80;99.90;;;;;;5093067;28;20441;-62
2022/03/24 02:44:34;;;;;;;7.43;3.40;;;2.60;99.90;;;;;;5093106;28;20106;-62
2022/03/24 02:47:03;;;;;;;6.57;2.67;;;2.50;99.90;;;;;;5092343;28;20040;-62
2022/03/24 02:49:31;;;;;;;5.00;3.15;;;2.50;99.90;;;;;;5084753;28;20033;-62
2022/03/24 02:52:00;;;;;;;6.07;3.22;;;2.60;99.90;;;;;;5092479;28;20044;-62
2022/03/24 02:54:29;;;;;;;7.30;3.05;;;2.70;99.90;;;;;;5093016;28;20047;-62
2022/03/24 02:56:57;;;;;;;5.38;3.05;;;2.70;99.90;;;;;;5092471;28;20035;-62
2022/03/24 02:59:24;;;;;;;7.55;3.10;;;2.70;99.90;;;;;;5084659;28;20504;-63
2022/03/24 03:02:06;;;;;;;5.70;2.92;;;2.70;99.90;;;;;;5092519;28;20052;-62
2022/03/24 03:04:34;;;;;;;9.30;2.72;;;2.70;99.90;;;;;;5092834;28;20127;-62
2022/03/24 03:07:03;;;;;;;7.38;3.45;;;2.70;99.90;;;;;;5091621;28;20048;-62
2022/03/24 03:09:35;;;;;;;7.30;3.50;;;2.70;99.90;;;;;;5066912;28;20119;-62
2022/03/24 03:12:03;;;;;;;8.05;3.42;;;2.70;99.90;;;;;;5092565;28;20040;-62
2022/03/24 03:14:30;;;;;;;6.78;3.10;;;2.70;99.90;;;;;;5092192;28;20094;-62
2022/03/24 03:16:59;;;;;;;6.30;3.08;;;2.70;99.90;;;;;;5080798;28;20098;-62
2022/03/24 03:19:26;;;;;;;5.95;2.83;;;2.60;99.90;;;;;;5072217;28;20076;-62
2022/03/24 03:21:54;;;;;;;5.43;3.10;;;2.40;99.90;;;;;;5054204;28;20052;-63
2022/03/24 03:24:22;;;;;;;7.43;3.10;;;2.30;99.90;;;;;;5083857;28;20107;-63
2022/03/24 03:26:49;;;;;;;;;;;2.30;99.90;;;;;;5073647;28;20048;-63
2022/03/24 03:29:17;;;;;;;5.82;2.67;;;2.10;99.90;;;;;;5072206;28;19966;-63
2022/03/24 03:31:44;;;;;;;;;;;2.10;99.90;;;;;;5054173;28;20041;-63
2022/03/24 03:34:11;;;;;;;10.90;3.80;;;2.00;99.90;;;;;;5083311;28;19974;-63
2022/03/24 03:36:38;;;;;;;9.05;3.72;;;1.90;99.90;;;;;;5074531;28;20515;-63
2022/03/24 03:39:09;;;;;;;9.90;3.85;;;1.80;99.90;;;;;;5054409;28;20064;-63
2022/03/24 03:41:37;;;;;;;7.28;3.45;;;1.90;99.90;;;;;;5084356;28;20043;-63
2022/03/24 03:44:05;;;;;;;6.88;3.03;;;1.90;99.90;;;;;;5084605;28;20036;-62
2022/03/24 03:46:32;;;;;;;8.27;3.75;;;1.80;99.90;;;;;;5092085;28;20044;-63
2022/03/24 03:48:59;;;;;;;9.65;3.42;;;1.70;99.90;;;;;;5091340;28;20085;-63
2022/03/24 03:51:27;;;;;;;8.85;3.78;;;1.70;99.90;;;;;;5083185;28;20511;-63
2022/03/24 03:53:55;;;;;;;10.02;3.80;;;1.40;99.90;;;;;;5071769;28;20132;-62
2022/03/24 03:56:22;;;;;;;;;;;1.50;99.90;;;;;;5072017;28;20054;-63
2022/03/24 03:58:49;;;;;;;7.20;2.90;;;1.40;99.90;;;;;;5080742;28;19965;-63
2022/03/24 04:01:16;;;;;;;6.68;2.90;;;1.40;99.90;;;;;;5071339;28;20048;-63
2022/03/24 04:03:44;;;;;;;7.97;3.45;;;1.50;99.90;;;;;;5071593;28;20044;-63
2022/03/24 04:06:12;;;;;;;5.35;3.00;;;1.50;99.90;;;;;;5079660;28;20039;-63
2022/03/24 04:08:42;;;;;;;9.43;3.63;;;1.50;99.90;;;;;;5083356;28;20036;-63
2022/03/24 04:11:10;;;;;;;5.13;2.95;;;1.50;99.90;;;;;;5091474;28;20545;-63
2022/03/24 04:13:39;;;;;;;7.00;3.20;;;1.50;99.90;;;;;;5091408;28;20055;-61
2022/03/24 04:16:14;;;;;;;6.47;2.80;;;1.50;99.90;;;;;;5090633;28;20128;-63
2022/03/24 04:18:43;;;;;;;10.90;3.00;;;1.50;99.90;;;;;;5065051;28;20055;-63
2022/03/24 04:21:11;;;;;;;10.13;2.85;;;1.60;99.90;;;;;;5091337;28;20159;-63
2022/03/24 04:23:40;;;;;;;7.18;2.85;;;1.60;99.90;;;;;;5090385;28;20075;-62
2022/03/24 04:26:10;;;;;;;6.80;2.95;;;1.90;99.90;;;;;;5083220;28;20081;-63
2022/03/24 04:28:37;;;;;;;6.88;3.05;;;1.50;99.90;;;;;;5091721;28;20102;-63
2022/03/24 04:31:04;;;;;;;;;;;1.40;99.90;;;;;;5086113;28;20040;-63
2022/03/24 04:33:31;;;;;;;6.88;3.05;;;1.30;99.90;;;;;;5084938;28;19942;-63
2022/03/24 04:35:59;;;;;;;5.93;3.08;;;1.10;99.90;;;;;;5082804;28;20094;-63
2022/03/24 04:38:27;;;;;;;7.10;3.20;;;1.10;99.90;;;;;;5079788;28;20492;-63
2022/03/24 04:40:56;;;;;;;6.63;2.85;;;1.00;99.90;;;;;;5076719;28;20041;-63
2022/03/24 04:43:24;;;;;;;7.22;3.38;;;1.00;99.90;;;;;;5079976;28;20500;-63
2022/03/24 04:45:50;;;;;;;6.53;3.35;;;1.00;99.90;;;;;;5082417;28;20438;-63
2022/03/24 04:48:18;;;;;;;5.93;2.80;;;1.10;99.90;;;;;;5075309;28;20127;-63
2022/03/24 04:50:45;;;;;;;6.93;3.25;;;1.20;99.90;;;;;;5082308;28;20040;-63
2022/03/24 04:53:15;;;;;;;5.85;2.70;;;1.30;99.90;;;;;;5084572;28;20044;-63
2022/03/24 04:55:44;;;;;;;9.02;3.63;;;1.30;99.90;;;;;;5091344;28;20048;-63
2022/03/24 04:58:12;;;;;;;7.25;3.38;;;1.30;99.90;;;;;;5084463;28;20036;-63
2022/03/24 05:00:40;;;;;;;11.15;4.18;;;1.40;99.90;;;;;;5081473;28;20036;-63
2022/03/24 05:03:07;;;;;;;11.90;3.55;;;1.40;99.90;;;;;;5070513;28;20032;-63
2022/03/24 05:05:34;;;;;;;9.93;3.65;;;1.40;99.90;;;;;;5071018;28;20036;-63
2022/03/24 05:08:04;;;;;;;13.57;3.83;;;1.40;99.90;;;;;;5078165;28;20036;-63
2022/03/24 05:10:32;;;;;;;10.63;3.90;;;1.50;99.90;;;;;;5079928;28;20074;-63
2022/03/24 05:12:58;;;;;;;10.15;5.32;;;1.60;99.90;;;;;;5070537;28;20112;-63
2022/03/24 05:15:26;;;;;;;14.07;4.47;;;1.60;99.90;;;;;;5073815;28;20048;-63
2022/03/24 05:17:53;;;;;;;10.57;4.30;;;1.70;99.90;;;;;;5081885;28;20036;-63
2022/03/24 05:20:21;;;;;;;10.02;3.67;;;1.60;99.90;;;;;;5075445;28;20076;-63
2022/03/24 05:22:47;;;;;;;8.45;3.50;;;1.40;99.90;;;;;;5070524;28;20467;-63
2022/03/24 05:25:15;;;;;;;8.45;3.67;;;1.30;99.90;;;;;;5077882;28;20042;-63
2022/03/24 05:27:42;;;;;;;11.95;4.40;;;1.30;99.90;;;;;;5083469;28;20065;-63
2022/03/24 05:30:10;;;;;;;;;;;1.30;99.90;;;;;;5095304;28;20063;-63
2022/03/24 05:32:40;;;;;;;10.75;4.97;;;1.30;99.90;;;;;;5093154;28;19926;-64
2022/03/24 05:35:07;;;;;;;18.73;6.10;;;1.30;99.90;;;;;;5085725;28;20040;-64
2022/03/24 05:37:34;;;;;;;14.82;5.68;;;1.30;99.90;;;;;;5094565;28;20101;-63
2022/03/24 05:40:02;;;;;;;12.68;5.80;;;1.30;99.90;;;;;;5094688;28;20040;-63
2022/03/24 05:42:29;;;;;;;11.90;5.00;;;1.40;99.90;;;;;;5067762;28;20040;-63
2022/03/24 05:44:56;;;;;;;10.25;5.03;;;1.40;99.90;;;;;;5085926;28;20545;-64
2022/03/24 05:47:24;;;;;;;13.55;5.32;;;1.40;99.90;;;;;;5093937;28;20121;-63
2022/03/24 05:49:51;;;;;;;;;;;1.40;99.90;;;;;;5094189;28;20046;-63
2022/03/24 05:52:49;;;;;;;15.05;5.70;;;1.50;99.90;;;;;;5074667;28;20018;-63
2022/03/24 05:55:17;;;;;;;14.52;4.88;;;1.60;99.90;;;;;;5080973;28;20041;-63
2022/03/24 05:57:44;;;;;;;12.07;4.13;;;1.70;99.90;;;;;;5094000;28;20126;-63
2022/03/24 06:00:12;;;;;;;13.10;4.65;;;1.80;99.90;;;;;;5075010;28;20036;-63
2022/03/24 06:02:41;;;;;;;12.45;4.75;;;1.60;99.90;;;;;;5085139;28;20041;-63
2022/03/24 06:05:09;;;;;;;15.57;4.65;;;1.50;99.90;;;;;;5088657;28;20044;-63
2022/03/24 06:07:37;;;;;;;11.00;4.07;;;1.50;99.90;;;;;;5084013;28;20094;-63
2022/03/24 06:10:05;;;;;;;10.75;3.63;;;1.30;99.90;;;;;;5093406;28;20088;-63
2022/03/24 06:12:32;;;;;;;9.38;3.58;;;1.30;99.90;;;;;;5093594;28;20068;-63
2022/03/24 06:15:02;;;;;;;9.45;3.75;;;1.30;99.90;;;;;;5093773;28;20044;-62
2022/03/24 06:17:30;;;;;;;11.68;3.90;;;1.20;99.90;;;;;;5084242;28;20048;-63
2022/03/24 06:19:57;;;;;;;11.07;3.90;;;1.30;99.90;;;;;;5073377;28;20044;-63
2022/03/24 06:22:24;;;;;;;8.52;4.10;;;1.20;99.90;;;;;;5055137;28;20114;-62
2022/03/24 06:24:51;;;;;;;8.63;3.97;;;1.30;99.90;;;;;;5085679;28;20040;-62
2022/03/24 06:27:18;;;;;;;8.32;3.67;;;1.40;99.90;;;;;;5088471;28;20048;-62
2022/03/24 06:29:45;;;;;;;9.10;4.15;;;1.40;99.90;;;;;;5094034;28;20062;-63
2022/03/24 06:32:13;;;;;;;11.15;4.15;;;1.50;99.90;;;;;;5093376;28;20079;-62
2022/03/24 06:34:40;;;;;;;23.45;4.50;;;1.50;99.90;;;;;;5084528;28;20390;-62
2022/03/24 06:37:07;;;;;;;13.45;4.05;;;1.50;99.90;;;;;;5092728;28;20119;-62
2022/03/24 06:39:34;;;;;;;13.82;5.40;;;1.50;99.90;;;;;;5093765;28;20105;-62
2022/03/24 06:42:02;;;;;;;11.55;4.85;;;1.50;99.90;;;;;;5087870;28;20098;-62
2022/03/24 06:44:29;;;;;;;12.57;5.47;;;1.60;99.90;;;;;;5081251;28;20041;-62
2022/03/24 06:46:57;;;;;;;13.30;5.25;;;1.80;99.90;;;;;;5073164;28;20055;-63
2022/03/24 06:49:24;;;;;;;13.85;4.72;;;2.10;99.90;;;;;;5073065;28;20098;-63
2022/03/24 06:51:51;;;;;;;12.70;5.00;;;2.40;99.90;;;;;;5082544;28;20073;-63
2022/03/24 06:54:18;;;;;;;8.57;4.07;;;2.70;99.90;;;;;;5084568;28;20093;-62
2022/03/24 06:56:45;;;;;;;12.90;4.25;;;3.00;99.90;;;;;;5092982;28;20047;-63
2022/03/24 06:59:12;;;;;;;19.10;5.05;;;3.30;99.90;;;;;;5091911;28;20074;-62
2022/03/24 07:01:40;;;;;;;15.20;5.93;;;3.40;99.90;;;;;;5084058;28;20048;-63
2022/03/24 07:04:07;;;;;;;13.57;4.93;;;3.30;99.90;;;;;;5092808;28;20399;-63
2022/03/24 07:06:34;;;;;;;11.43;4.35;;;3.50;99.90;;;;;;5092851;28;20131;-63
2022/03/24 07:09:01;;;;;;;9.73;4.05;;;3.60;99.90;;;;;;5064772;28;20479;-63
2022/03/24 07:11:29;;;;;;;8.88;3.72;;;3.80;99.90;;;;;;5088918;28;20472;-63
2022/03/24 07:13:55;;;;;;;6.40;3.97;;;4.10;99.90;;;;;;5092542;28;20040;-63
2022/03/24 07:16:22;;;;;;;10.07;4.22;;;4.30;99.90;;;;;;5083610;28;20040;-63
2022/03/24 07:18:51;;;;;;;11.02;3.85;;;4.60;99.90;;;;;;5073119;28;20046;-63
2022/03/24 07:21:19;;;;;;;9.70;4.15;;;4.80;99.90;;;;;;5071808;28;20045;-63
2022/03/24 07:23:46;;;;;;;8.73;4.32;;;5.00;99.90;;;;;;5084710;28;20504;-63
2022/03/24 07:26:14;;;;;;;9.00;4.07;;;5.20;99.90;;;;;;5086525;28;20040;-63
2022/03/24 07:28:41;;;;;;;10.85;3.92;;;5.40;99.90;;;;;;5092541;28;20119;-63
2022/03/24 07:31:12;;;;;;;10.60;4.25;;;5.60;99.90;;;;;;5072290;28;20036;-63
2022/03/24 07:33:40;;;;;;;10.35;4.43;;;5.70;99.90;;;;;;5082475;28;20107;-63
2022/03/24 07:36:08;;;;;;;9.75;4.10;;;5.80;99.90;;;;;;5054339;28;20110;-63
2022/03/24 07:38:35;;;;;;;11.00;3.75;;;5.90;99.90;;;;;;5072120;28;20046;-63
2022/03/24 07:41:02;;;;;;;7.65;3.65;;;6.00;99.90;;;;;;5081515;28;20044;-63
2022/03/24 07:43:29;;;;;;;;;;;6.10;99.90;;;;;;5088668;28;20089;-63
2022/03/24 07:45:56;;;;;;;7.35;3.55;;;6.20;99.90;;;;;;5091996;28;19920;-63
2022/03/24 07:48:27;;;;;;;10.18;3.55;;;6.40;99.90;;;;;;5072530;28;20086;-63
2022/03/24 07:50:56;;;;;;;8.07;4.28;;;6.40;99.90;;;;;;5080011;28;20045;-63
2022/03/24 07:53:37;;;;;;;6.15;3.20;;;6.60;99.90;;;;;;5071472;28;20115;-63
2022/03/24 07:56:04;;;;;;;5.00;3.20;;;6.70;99.90;;;;;;5094772;22;20059;-64
2022/03/24 07:58:32;;;;;;;;;;;6.90;99.90;;;;;;5071718;28;20048;-64
2022/03/24 08:00:59;;;;;;;7.13;3.20;;;6.90;99.90;;;;;;5070001;28;19928;-64
2022/03/24 08:03:27;;;;;;;6.20;3.42;;;7.10;99.90;;;;;;5055576;28;20120;-64
2022/03/24 08:05:55;;;;;;;8.68;3.28;;;7.20;99.90;;;;;;5078487;28;20488;-64
2022/03/24 08:08:22;;;;;;;7.53;3.13;;;7.40;99.90;;;;;;5087009;28;20048;-64
2022/03/24 08:10:51;;;;;;;5.72;2.97;;;7.40;99.90;;;;;;5091983;28;20064;-64
2022/03/24 08:13:19;;;;;;;6.63;3.13;;;7.40;99.90;;;;;;5074930;28;20044;-64
2022/03/24 08:15:47;;;;;;;9.27;3.67;;;7.60;99.90;;;;;;5083136;28;20040;-64
2022/03/24 08:18:16;;;;;;;8.20;3.22;;;7.80;99.90;;;;;;5091582;28;20040;-64
2022/03/24 08:20:45;;;;;;;13.50;3.42;;;7.80;99.90;;;;;;5075423;28;20611;-64
2022/03/24 08:23:13;;;;;;;7.18;3.20;;;8.00;99.90;;;;;;5083106;28;20044;-64
2022/03/24 08:25:42;;;;;;;8.82;3.90;;;8.20;99.90;;;;;;5091012;28;20047;-64
2022/03/24 08:28:10;;;;;;;7.15;3.03;;;8.50;99.90;;;;;;5091587;28;20081;-64
2022/03/24 08:30:38;;;;;;;7.57;3.28;;;8.60;99.90;;;;;;5086589;28;20046;-65
2022/03/24 08:33:06;;;;;;;5.18;3.20;;;8.80;99.90;;;;;;5084187;28;20048;-65
2022/03/24 08:35:33;;;;;;;7.72;4.05;;;8.80;99.90;;;;;;5091524;28;20206;-64
2022/03/24 08:38:00;;;;;;;10.15;3.25;;;8.90;99.90;;;;;;5091301;28;20385;-65
2022/03/24 08:40:28;;;;;;;16.42;3.90;;;9.10;99.90;;;;;;5083807;28;20044;-64
2022/03/24 08:42:55;;;;;;;3.40;2.38;;;9.20;99.90;;;;;;5083006;28;20416;-64
2022/03/24 08:45:23;;;;;;;6.20;3.10;;;9.30;99.90;;;;;;5091235;28;20480;-64
2022/03/24 08:47:50;;;;;;;7.60;3.35;;;9.40;98.70;;;;;;5091409;28;20044;-64
2022/03/24 08:50:17;;;;;;;9.82;3.05;;;9.50;99.20;;;;;;5081328;28;20097;-64
2022/03/24 08:52:45;;;;;;;6.28;2.47;;;9.60;98.30;;;;;;5082160;28;20040;-64
2022/03/24 08:55:15;;;;;;;7.15;3.10;;;9.70;98.00;;;;;;5091091;28;20086;-64
2022/03/24 08:57:43;;;;;;;6.68;3.40;;;9.70;97.30;;;;;;5079898;28;20497;-64
2022/03/24 09:00:13;;;;;;;5.10;2.80;;;9.80;97.70;;;;;;5085185;28;20491;-64
2022/03/24 09:02:48;;;;;;;5.13;2.78;;;9.90;97.60;;;;;;5094943;28;20519;-64
2022/03/24 09:05:16;;;;;;;6.65;2.75;;;10.10;96.40;;;;;;5094958;28;20048;-64
2022/03/24 09:07:44;;;;;;;8.65;3.30;;;10.20;96.10;;;;;;5082980;28;20093;-64
2022/03/24 09:10:13;;;;;;;12.90;3.22;;;10.30;94.20;;;;;;5088861;28;20093;-64
2022/03/24 09:12:44;;;;;;;5.65;2.83;;;10.40;94.50;;;;;;5094669;28;20488;-64
2022/03/24 09:15:14;;;;;;;6.32;2.78;;;10.50;94.20;;;;;;5080580;28;20044;-64
2022/03/24 09:17:42;;;;;;;4.80;2.80;;;10.70;93.80;;;;;;5086544;28;20512;-64
2022/03/24 09:20:11;;;;;;;6.63;2.75;;;10.90;93.60;;;;;;5094807;28;20450;-63
2022/03/24 09:22:41;;;;;;;6.97;2.72;;;11.10;93.30;;;;;;5086577;28;20045;-64
2022/03/24 09:25:08;;;;;;;5.65;2.97;;;11.10;91.00;;;;;;5068993;28;20090;-64
2022/03/24 09:27:36;;;;;;;6.78;2.83;;;11.10;90.40;;;;;;5094743;28;20476;-65
2022/03/24 09:30:07;;;;;;;4.30;2.40;;;11.10;90.30;;;;;;5094527;28;20067;-65
2022/03/24 09:32:35;;;;;;;5.78;2.33;;;11.20;89.50;;;;;;5077866;28;20044;-65
2022/03/24 09:35:04;;;;;;;9.50;3.25;;;11.50;90.10;;;;;;5086212;28;20076;-63
2022/03/24 09:37:33;;;;;;;5.65;2.50;;;11.60;89.40;;;;;;5094381;28;20536;-64
2022/03/24 09:40:02;;;;;;;4.93;2.70;;;11.70;87.60;;;;;;5086493;28;20052;-65
2022/03/24 09:42:30;;;;;;;4.07;2.88;;;11.80;86.30;;;;;;5085503;28;20380;-65
2022/03/24 09:44:57;;;;;;;;;;;12.00;87.20;;;;;;5095026;28;20496;-64
2022/03/24 09:47:26;;;;;;;7.18;3.58;;;12.10;83.00;;;;;;5094567;28;19920;-65
2022/03/24 09:49:53;;;;;;;5.53;2.78;;;12.10;82.90;;;;;;5086317;28;20029;-65
2022/03/24 09:52:22;;;;;;;8.18;2.83;;;12.20;83.10;;;;;;5088866;28;20128;-64
2022/03/24 09:54:49;;;;;;;4.70;2.38;;;12.30;80.50;;;;;;5094155;28;20106;-65
2022/03/24 09:57:16;;;;;;;5.00;2.30;;;12.40;82.10;;;;;;5092973;28;20055;-65
2022/03/24 09:59:44;;;;;;;4.40;2.85;;;12.60;81.00;;;;;;5082199;28;20059;-65
2022/03/24 10:02:11;;;;;;;7.60;3.10;;;12.70;79.20;;;;;;5093837;28;20054;-65
2022/03/24 10:04:48;;;;;;;8.15;2.70;;;12.60;76.20;;;;;;5094226;28;20048;-65
2022/03/24 10:07:23;;;;;;;6.95;2.83;;;12.70;76.50;;;;;;5089888;28;20036;-65
2022/03/24 10:09:55;;;;;;;8.27;2.30;;;12.80;76.90;;;;;;5083811;28;20037;-65
2022/03/24 10:12:28;;;;;;;3.97;2.67;;;13.10;75.10;;;;;;5092646;28;20428;-65
2022/03/24 10:14:59;;;;;;;6.18;2.10;;;13.30;74.10;;;;;;5093963;28;20496;-65
2022/03/24 10:17:27;;;;;;;8.52;2.28;;;13.50;71.70;;;;;;5084122;28;20501;-65
2022/03/24 10:20:20;;;;;;;2.95;2.20;;;13.60;72.20;;;;;;5076940;28;20048;-64
2022/03/24 10:22:58;;;;;;;5.32;2.38;;;13.80;70.60;;;;;;5071475;28;20092;-65
2022/03/24 10:25:46;;;;;;;6.45;2.22;;;13.90;69.30;;;;;;5073467;28;20037;-64
2022/03/24 10:28:19;;;;;;;5.85;2.60;;;14.00;68.30;;;;;;5075609;28;20044;-65
2022/03/24 10:30:49;;;;;;;5.15;2.35;;;14.10;67.60;;;;;;5085090;28;20097;-65
2022/03/24 10:33:30;;;;;;;7.25;1.90;;;14.20;66.60;;;;;;5093577;28;20044;-65
2022/03/24 10:36:17;;;;;;;6.28;2.42;;;14.30;66.90;;;;;;5093640;28;20093;-65
2022/03/24 10:38:48;;;;;;;2.95;2.15;;;14.30;64.70;;;;;;5082007;28;20044;-65
2022/03/24 10:41:30;;;;;;;5.40;2.38;;;14.30;64.60;;;;;;5071360;28;20048;-64
2022/03/24 10:43:59;;;;;;;8.18;1.98;;;14.30;64.30;;;;;;5064181;28;20396;-64
2022/03/24 10:46:31;;;;;;;6.47;1.95;;;14.40;63.90;;;;;;5068617;28;20118;-65
2022/03/24 10:49:14;;;;;;;4.80;1.95;;;14.50;63.80;;;;;;5063946;28;20063;-65
2022/03/24 10:51:47;;;;;;;3.08;2.00;;;14.80;62.80;;;;;;5072440;28;20489;-65
2022/03/24 10:54:25;;;;;;;5.53;2.10;;;14.80;61.80;;;;;;5070668;28;20569;-65
2022/03/24 10:56:52;;;;;;;7.47;2.17;;;14.90;61.80;;;;;;5083667;28;20119;-65
2022/03/24 10:59:23;;;;;;;2.92;2.25;;;15.10;62.90;;;;;;5093238;28;20048;-64
2022/03/24 11:01:50;;;;;;;6.50;2.35;;;15.10;61.00;;;;;;5092444;28;20123;-64
2022/03/24 11:04:18;;;;;;;;;;;15.30;60.90;;;;;;5086589;28;20642;-64
2022/03/24 11:06:52;;;;;;;3.95;1.75;;;15.50;60.90;;;;;;5084017;28;20364;-64
2022/03/24 11:09:35;;;;;;;5.13;2.25;;;15.60;60.80;;;;;;5092928;28;20036;-64
2022/03/24 11:12:28;;;;;;;5.68;2.35;;;15.70;58.90;;;;;;5084937;28;20043;-64
2022/03/24 11:15:02;;;;;;;5.50;2.10;;;15.60;58.00;;;;;;5084296;28;20396;-64
2022/03/24 11:17:34;;;;;;;7.75;2.33;;;15.60;59.50;;;;;;5092776;28;20097;-64
2022/03/24 11:20:04;;;;;;;4.47;2.28;;;15.60;58.10;;;;;;5092766;28;20036;-64
2022/03/24 11:22:46;;;;;;;5.43;2.10;;;15.60;56.50;;;;;;5077750;28;20457;-64
2022/03/24 11:25:13;;;;;;;2.92;1.90;;;15.70;55.90;;;;;;5092946;28;20097;-64
2022/03/24 11:27:40;;;;;;;3.83;2.13;;;15.70;56.90;;;;;;5092667;28;20053;-64
2022/03/24 11:30:08;;;;;;;;;;;15.90;55.00;;;;;;5085273;28;20362;-64
2022/03/24 11:32:36;;;;;;;3.13;2.20;;;15.90;55.20;;;;;;5077635;28;20397;-64
2022/03/24 11:35:05;;;;;;;3.85;2.30;;;16.00;55.50;;;;;;5092186;28;20040;-64
2022/03/24 11:37:34;;;;;;;8.18;2.25;;;16.20;55.40;;;;;;5092363;28;20064;-64
2022/03/24 11:40:28;;;;;;;3.40;2.40;;;16.40;55.40;;;;;;5083339;28;20044;-64
2022/03/24 11:43:11;;;;;;;3.58;2.10;;;16.40;54.40;;;;;;5083232;28;20075;-65
2022/03/24 11:45:53;;;;;;;5.03;2.55;;;16.50;54.70;;;;;;5091991;28;20048;-64
2022/03/24 11:48:33;;;;;;;2.92;2.20;;;16.60;52.40;;;;;;5077642;28;20032;-64
2022/03/24 11:51:19;;;;;;;3.05;1.77;;;16.70;51.10;;;;;;5051548;28;20045;-64
2022/03/24 11:54:02;;;;;;;3.15;2.30;;;16.80;51.10;;;;;;5052197;28;20067;-64
2022/03/24 11:56:30;;;;;;;7.70;2.30;;;16.90;51.60;;;;;;5075995;28;20083;-64
2022/03/24 11:58:56;;;;;;;3.75;1.83;;;16.90;52.30;;;;;;5071737;28;20497;-64
2022/03/24 12:01:32;;;;;;;3.58;2.17;;;17.10;50.00;;;;;;5071498;28;20087;-64
2022/03/24 12:04:08;;;;;;;2.35;1.98;;;17.10;52.10;;;;;;5078894;28;20033;-64
2022/03/24 12:06:45;;;;;;;3.33;2.10;;;17.10;51.80;;;;;;5088591;28;20546;-64
2022/03/24 12:09:14;;;;;;;5.22;1.80;;;17.30;50.20;;;;;;5091827;28;20044;-64
2022/03/24 12:11:44;;;;;;;4.05;2.00;;;17.40;50.00;;;;;;5088505;28;20883;-64
2022/03/24 12:14:16;;;;;;;2.95;1.90;;;17.50;51.30;;;;;;5083339;28;20101;-64
2022/03/24 12:16:49;;;;;;;3.30;1.85;;;17.50;47.70;;;;;;5091826;28;20047;-64
2022/03/24 12:19:38;;;;;;;5.28;1.88;;;17.60;47.20;;;;;;5091588;28;20051;-64
2022/03/24 12:22:24;;;;;;;1.88;1.67;;;17.70;49.80;;;;;;5087154;28;20487;-64
2022/03/24 12:24:53;;;;;;;2.58;1.67;;;17.80;47.00;;;;;;5083028;28;20079;-64
2022/03/24 12:27:20;;;;;;;2.83;1.75;;;17.90;47.70;;;;;;5091420;28;20044;-65
2022/03/24 12:30:11;;;;;;;5.70;1.92;;;18.00;46.80;;;;;;5081517;28;20053;-65
2022/03/24 12:32:39;;;;;;;6.40;1.83;;;18.00;47.30;;;;;;5082565;28;20119;-65
2022/03/24 12:35:07;;;;;;;4.38;2.10;;;18.00;47.00;;;;;;5090988;28;20454;-65
2022/03/24 12:37:34;;;;;;;4.85;2.25;;;18.00;48.90;;;;;;5087517;28;20063;-65
2022/03/24 12:40:08;;;;;;;4.93;2.00;;;18.10;49.80;;;;;;5082794;28;20051;-65
2022/03/24 12:42:47;;;;;;;10.15;3.85;;;18.10;49.80;;;;;;5090816;28;20078;-65
2022/03/24 12:45:26;;;;;;;6.60;3.30;;;18.20;52.30;;;;;;5091301;28;20047;-65
2022/03/24 12:47:59;;;;;;;5.53;3.25;;;18.30;52.60;;;;;;5083592;28;20036;-65
2022/03/24 12:50:28;;;;;;;9.38;3.67;;;18.30;53.00;;;;;;5082969;28;20044;-65
2022/03/24 12:53:06;;;;;;;5.03;3.75;;;18.40;54.50;;;;;;5091005;28;20044;-64
2022/03/24 12:55:37;;;;;;;7.93;3.03;;;18.30;49.90;;;;;;5091325;28;20040;-65
2022/03/24 12:58:15;;;;;;;6.80;3.78;;;18.40;52.40;;;;;;5082300;28;20492;-65
2022/03/24 13:00:47;;;;;;;8.20;4.15;;;18.40;51.30;;;;;;5089507;28;20166;-64
2022/03/24 13:03:16;;;;;;;8.77;4.10;;;18.40;52.90;;;;;;5090846;28;20059;-64
2022/03/24 13:05:46;;;;;;;9.50;5.82;;;18.50;51.60;;;;;;5091270;28;20403;-64
2022/03/24 13:08:15;;;;;;;8.18;5.38;;;18.50;55.80;;;;;;5078918;28;20504;-64